M I D A S
Marine Information and Data Acquisition System
Tripno 1811 of the Zeeleeuw from 2009-11-20 09:27:40 to 2009-11-20 15:13:05
Back to CruiseResearch ActivitiesStationsMapUnderway DataData graphs

EquipmentUnitsComment
TimeDGPSUTC
LatitudeDGPSDM.mWGS84
LongitudeDGPSDM.mWGS84
HeadingGyrodeg 
SOGDGPSknotsSpeed over ground
COGDGPSdegCourse over ground
DepthEcho soundermeters200 kHz
Missing or incorrect values are displayed as -999
Navigation data collected by the RV Zeeleeuw from 2009-11-20 09:26:08 to 2009-11-20 15:18:39
Time Latitude Longitude Heading SOG COG Depth
2009-11-20 09:27:16 51°13.678 2°55.886 102.4 3.3 286 -999
2009-11-20 09:28:17 51°13.688 2°55.801 86.6 2.9 273 -999
2009-11-20 09:29:15 51°13.69 2°55.767 49.9 0.6 12 11.8
2009-11-20 09:30:14 51°13.694 2°55.767 10.3 0.8 203 12.6
2009-11-20 09:31:13 51°13.706 2°55.75 328.7 2.9 327 13
2009-11-20 09:32:13 51°13.785 2°55.67 330 7.1 330 10.7
2009-11-20 09:33:13 51°13.905 2°55.572 334.2 8.7 333 9.9
2009-11-20 09:34:13 51°14.042 2°55.47 336.8 9.2 335 9.4
2009-11-20 09:35:13 51°14.18 2°55.356 329.6 9.4 328 9.7
2009-11-20 09:36:13 51°14.291 2°55.19 310.2 9.3 310 9.7
2009-11-20 09:37:13 51°14.398 2°55.01 318.8 9.4 321 9.2
2009-11-20 09:38:13 51°14.509 2°54.814 304.8 10.9 301 9.4
2009-11-20 09:39:13 51°14.606 2°54.556 303.1 11.5 300 9.4
2009-11-20 09:40:13 51°14.697 2°54.287 299.1 11.5 296 9.6
2009-11-20 09:41:13 51°14.771 2°54.006 294 11.5 292 9.1
2009-11-20 09:42:13 51°14.842 2°53.726 294 11.4 292 9
2009-11-20 09:43:13 51°14.912 2°53.443 294.3 11.5 292 9.1
2009-11-20 09:44:18 51°14.988 2°53.136 294 11.5 292 9.1
2009-11-20 09:45:18 51°15.058 2°52.851 294.6 11.6 292 9.8
2009-11-20 09:46:18 51°15.128 2°52.564 294.1 11.7 291 9.9
2009-11-20 09:47:18 51°15.197 2°52.276 293.8 11.7 291 10.4
2009-11-20 09:48:18 51°15.264 2°51.986 289.6 11.6 286 10.9
2009-11-20 09:49:18 51°15.281 2°51.678 271.3 11.8 269 11.5
2009-11-20 09:50:18 51°15.267 2°51.362 266.4 12 265 11.7
2009-11-20 09:51:18 51°15.253 2°51.042 267.9 12.1 267 12
2009-11-20 09:52:18 51°15.238 2°50.723 265.3 12 263 12.2
2009-11-20 09:53:18 51°15.212 2°50.408 263.3 12.1 262 12.1
2009-11-20 09:54:18 51°15.184 2°50.09 263.5 12.2 262 12.3
2009-11-20 09:55:18 51°15.159 2°49.771 264.3 12.1 263 12.3
2009-11-20 09:56:18 51°15.134 2°49.453 264.3 12 263 12.2
2009-11-20 09:57:18 51°15.11 2°49.136 264.1 12 263 12.4
2009-11-20 09:58:18 51°15.086 2°48.822 264.2 12 263 12
2009-11-20 09:59:18 51°15.062 2°48.507 264.3 11.9 263 12.4
2009-11-20 10:00:18 51°15.038 2°48.193 263.9 11.9 263 12.5
2009-11-20 10:01:18 51°15.015 2°47.88 264 11.9 263 12.5
2009-11-20 10:02:18 51°14.991 2°47.568 264 11.8 263 11.6
2009-11-20 10:03:18 51°14.97 2°47.259 264.3 11.7 264 10
2009-11-20 10:04:18 51°14.947 2°46.952 264.2 11.6 264 8.9
2009-11-20 10:05:18 51°14.919 2°46.648 260.3 11.6 260 9
2009-11-20 10:06:18 51°14.869 2°46.35 253.6 11.6 253 8.9
2009-11-20 10:07:18 51°14.813 2°46.054 253.9 11.7 254 9
2009-11-20 10:08:18 51°14.757 2°45.755 253.5 11.8 253 9.8
2009-11-20 10:09:18 51°14.694 2°45.461 249 11.7 249 10.6
2009-11-20 10:10:18 51°14.615 2°45.177 243.8 11.7 244 10.9
2009-11-20 10:11:18 51°14.528 2°44.898 242.4 11.7 242 11.3
2009-11-20 10:12:18 51°14.416 2°44.644 231.6 11.8 233 11.2
2009-11-20 10:13:18 51°14.298 2°44.394 232.5 11.8 233 11.2
2009-11-20 10:14:18 51°14.182 2°44.143 232.8 11.8 234 11.5
2009-11-20 10:15:18 51°14.065 2°43.892 232.5 11.8 233 11.6
2009-11-20 10:16:18 51°13.949 2°43.638 233.2 11.8 234 11.7
2009-11-20 10:17:18 51°13.834 2°43.386 232.8 11.8 234 11.9
2009-11-20 10:18:18 51°13.718 2°43.134 233.6 11.7 234 12.1
2009-11-20 10:19:18 51°13.602 2°42.883 233.1 11.7 234 12.1
2009-11-20 10:20:18 51°13.485 2°42.631 233.5 11.8 233 11.9
2009-11-20 10:21:18 51°13.368 2°42.38 233.6 11.8 235 11.8
2009-11-20 10:22:18 51°13.252 2°42.128 233.3 11.8 234 11.9
2009-11-20 10:23:18 51°13.136 2°41.877 233.2 11.8 234 11.8
2009-11-20 10:24:18 51°13.02 2°41.627 233.1 11.7 234 11.7
2009-11-20 10:25:18 51°12.909 2°41.369 237.5 11.7 237 11.7
2009-11-20 10:26:18 51°12.804 2°41.106 237.8 11.8 238 11.6
2009-11-20 10:27:18 51°12.693 2°40.85 234.5 11.8 234 11.4
2009-11-20 10:28:18 51°12.577 2°40.598 234.4 11.7 234 11.5
2009-11-20 10:29:18 51°12.463 2°40.343 234.4 11.8 234 11.3
2009-11-20 10:30:18 51°12.348 2°40.09 233.8 11.8 234 11.5
2009-11-20 10:31:18 51°12.234 2°39.839 234 11.7 234 11
2009-11-20 10:32:18 51°12.12 2°39.586 234.5 11.7 235 10.7
2009-11-20 10:33:18 51°12.006 2°39.333 234.4 11.7 235 10.5
2009-11-20 10:34:18 51°11.894 2°39.081 234.4 11.6 235 10.6
2009-11-20 10:35:18 51°11.779 2°38.832 234.3 11.7 234 10.3
2009-11-20 10:36:18 51°11.666 2°38.581 234.2 11.6 235 10.3
2009-11-20 10:37:18 51°11.553 2°38.33 234.2 11.7 234 10.3
2009-11-20 10:38:18 51°11.439 2°38.079 234.4 11.7 235 10.5
2009-11-20 10:39:18 51°11.327 2°37.827 234.5 11.7 235 11.5
2009-11-20 10:40:18 51°11.214 2°37.576 234.1 11.7 233 11.6
2009-11-20 10:41:18 51°11.101 2°37.325 233.8 11.6 235 11.7
2009-11-20 10:42:18 51°10.988 2°37.075 233.9 11.7 235 11.8
2009-11-20 10:43:18 51°10.873 2°36.826 234.2 11.6 234 11.3
2009-11-20 10:44:18 51°10.755 2°36.584 228.9 11.6 227 11.2
2009-11-20 10:45:18 51°10.619 2°36.368 222.9 11.6 223 10.9
2009-11-20 10:46:18 51°10.469 2°36.177 214.5 11.6 215 10.5
2009-11-20 10:47:18 51°10.306 2°36.021 207.7 11.5 209 10.5
2009-11-20 10:48:18 51°10.13 2°35.904 198 11.5 197 14.4
2009-11-20 10:49:18 51°9.946 2°35.899 167.8 11.2 171 18.1
2009-11-20 10:50:18 51°9.767 2°35.971 163.4 11 166 18.2
2009-11-20 10:51:18 51°9.637 2°36.039 141.7 5 141 17.8
2009-11-20 10:52:18 51°9.621 2°36.122 84.8 3.1 85 17.6
2009-11-20 10:53:18 51°9.624 2°36.196 89.8 2.6 89 17.7
2009-11-20 10:54:18 51°9.622 2°36.262 99.5 2.9 97 17.6
2009-11-20 10:55:18 51°9.606 2°36.359 111.7 4.3 113 17.1
2009-11-20 10:56:18 51°9.573 2°36.45 123.4 3.6 123 16.7
2009-11-20 10:57:18 51°9.543 2°36.524 126.6 3.3 128 16.7
2009-11-20 10:58:18 51°9.504 2°36.591 136.9 3.4 135 16.5
2009-11-20 10:59:18 51°9.466 2°36.661 129.3 3.5 127 16.2
2009-11-20 11:00:18 51°9.437 2°36.743 118.9 3.6 116 16.5
2009-11-20 11:01:18 51°9.413 2°36.828 114.7 3.6 114 16.3
2009-11-20 11:02:18 51°9.391 2°36.915 112.6 3.6 112 15.7
2009-11-20 11:03:17 51°9.375 2°37.006 106.1 3.6 102 14.8
2009-11-20 11:04:18 51°9.37 2°37.105 89.5 3.8 89 14.1
2009-11-20 11:05:18 51°9.383 2°37.203 69.4 3.8 69 13.9
2009-11-20 11:06:18 51°9.416 2°37.289 49.7 3.9 50 13.9
2009-11-20 11:07:18 51°9.457 2°37.37 51.9 3.9 53 14.1
2009-11-20 11:08:18 51°9.496 2°37.453 52 4 52 14.3
2009-11-20 11:09:18 51°9.536 2°37.536 50.9 3.9 51 14.6
2009-11-20 11:10:18 51°9.575 2°37.621 53.1 3.9 54 14.7
2009-11-20 11:11:18 51°9.613 2°37.706 53.3 4 55 15
2009-11-20 11:12:18 51°9.652 2°37.791 52.1 4 55 15
2009-11-20 11:13:18 51°9.691 2°37.877 52.4 4 55 15.2
2009-11-20 11:14:18 51°9.729 2°37.962 52.4 4 53 15.3
2009-11-20 11:15:18 51°9.768 2°38.049 53.1 4 55 15.5
2009-11-20 11:16:18 51°9.807 2°38.135 52.2 4.1 53 15.5
2009-11-20 11:17:18 51°9.847 2°38.222 52.3 4.1 54 15.5
2009-11-20 11:18:18 51°9.886 2°38.309 52.9 4.1 54 15.7
2009-11-20 11:19:18 51°9.926 2°38.398 52.9 4.1 54 15.8
2009-11-20 11:20:18 51°9.966 2°38.486 52.1 4.1 54 15.9
2009-11-20 11:21:18 51°10.004 2°38.571 53.1 3.8 55 16
2009-11-20 11:22:18 51°10.041 2°38.652 52.3 3.7 54 16.1
2009-11-20 11:23:18 51°10.078 2°38.733 52 3.8 55 16.1
2009-11-20 11:24:18 51°10.115 2°38.814 52.9 3.8 52 16.1
2009-11-20 11:25:18 51°10.153 2°38.896 54.1 3.9 51 15.8
2009-11-20 11:26:18 51°10.19 2°38.978 52.9 3.9 54 16.1
2009-11-20 11:27:18 51°10.228 2°39.06 52.4 3.8 51 16
2009-11-20 11:28:18 51°10.266 2°39.141 52.3 3.9 53 16.3
2009-11-20 11:29:18 51°10.305 2°39.224 53 3.9 53 16.1
2009-11-20 11:30:18 51°10.343 2°39.308 52.7 3.9 55 16
2009-11-20 11:31:18 51°10.381 2°39.391 52.7 3.9 54 16
2009-11-20 11:32:18 51°10.415 2°39.48 70.2 3.8 67 15.9
2009-11-20 11:33:18 51°10.427 2°39.575 88.7 3.5 81 15.9
2009-11-20 11:34:18 51°10.433 2°39.663 96 3.3 85 15.6
2009-11-20 11:35:18 51°10.431 2°39.745 109 3 96 15.5
2009-11-20 11:36:18 51°10.422 2°39.823 120.9 2.9 104 15.2
2009-11-20 11:37:18 51°10.411 2°39.897 129.3 2.5 104 15
2009-11-20 11:38:18 51°10.406 2°39.951 133.2 2 88 14.9
2009-11-20 11:39:18 51°10.408 2°39.996 133.5 1.6 79 15
2009-11-20 11:40:18 51°10.414 2°40.034 132.9 1.4 71 14.9
2009-11-20 11:41:17 51°10.424 2°40.068 130 1.5 62 15
2009-11-20 11:42:18 51°10.439 2°40.104 120.2 1.6 54 15.1
2009-11-20 11:43:18 51°10.456 2°40.14 109.6 1.9 62 15
2009-11-20 11:44:18 51°10.466 2°40.24 88.1 6.2 82 15
2009-11-20 11:45:18 51°10.525 2°40.427 54.2 9.6 52 14.6
2009-11-20 11:46:18 51°10.651 2°40.655 46.2 12.1 43 14.5
2009-11-20 11:47:21 51°10.794 2°40.906 46.3 12.2 48 14.4
2009-11-20 11:48:21 51°10.923 2°41.153 51 12.2 53 14
2009-11-20 11:49:21 51°11.041 2°41.418 53.8 12.3 59 13.7
2009-11-20 11:50:21 51°11.157 2°41.684 55 12.3 53 13.7
2009-11-20 11:51:21 51°11.27 2°41.955 54.8 12.4 58 13.5
2009-11-20 11:52:21 51°11.372 2°42.237 62.3 12.4 66 13.4
2009-11-20 11:53:21 51°11.457 2°42.536 66.1 12.3 67 12.8
2009-11-20 11:54:21 51°11.536 2°42.835 67.8 12.3 70 12.7
2009-11-20 11:55:21 51°11.584 2°43.154 79.3 12.6 77 12.7
2009-11-20 11:56:21 51°11.596 2°43.482 94.7 12.4 90 13.1
2009-11-20 11:57:21 51°11.592 2°43.813 89.7 12.7 88 13.7
2009-11-20 11:58:21 51°11.619 2°44.146 81.6 12.7 79 14.1
2009-11-20 11:59:21 51°11.66 2°44.476 80.4 12.6 78 14.3
2009-11-20 12:00:21 51°11.707 2°44.81 78.3 12.8 77 14.5
2009-11-20 12:01:21 51°11.757 2°45.139 77.6 12.9 76 14.7
2009-11-20 12:02:21 51°11.806 2°45.471 79.4 13 80 14.9
2009-11-20 12:03:21 51°11.852 2°45.802 79.1 12.8 77 14.8
2009-11-20 12:04:21 51°11.901 2°46.133 79.8 12.8 78 14.9
2009-11-20 12:05:21 51°11.95 2°46.464 78.7 12.8 77 14.9
2009-11-20 12:06:21 51°11.998 2°46.796 78.8 12.8 78 14.8
2009-11-20 12:07:21 51°12.072 2°47.113 66.8 12.9 67 14.9
2009-11-20 12:08:21 51°12.166 2°47.417 64.8 13 63 14.8
2009-11-20 12:09:21 51°12.264 2°47.716 62.1 12.8 58 14.7
2009-11-20 12:10:21 51°12.362 2°48.016 62.9 12.9 65 14.5
2009-11-20 12:11:21 51°12.459 2°48.318 64 12.5 65 14.3
2009-11-20 12:12:21 51°12.556 2°48.622 65.7 13 64 14.4
2009-11-20 12:13:21 51°12.646 2°48.933 67.3 13 66 14.2
2009-11-20 12:14:21 51°12.733 2°49.249 68.2 12.8 69 13.9
2009-11-20 12:15:21 51°12.827 2°49.558 64.8 13.1 64 13.8
2009-11-20 12:16:21 51°12.923 2°49.868 63 12.9 62 13.8
2009-11-20 12:17:21 51°13.028 2°50.168 59.6 12.9 58 13.7
2009-11-20 12:18:21 51°13.13 2°50.469 63.7 13.1 64 13.6
2009-11-20 12:19:21 51°13.23 2°50.774 63.7 13 64 13.3
2009-11-20 12:20:21 51°13.332 2°51.079 63.2 13 65 13.4
2009-11-20 12:21:21 51°13.437 2°51.381 62.9 13.2 61 13.3
2009-11-20 12:22:21 51°13.545 2°51.68 60.9 12.9 63 13.1
2009-11-20 12:23:21 51°13.65 2°51.979 63 13 61 13.1
2009-11-20 12:24:21 51°13.76 2°52.279 58.7 13.1 60 13.1
2009-11-20 12:25:21 51°13.871 2°52.577 60.2 13 59 12.9
2009-11-20 12:26:21 51°13.981 2°52.878 59.6 13 59 12.8
2009-11-20 12:27:21 51°14.096 2°53.175 58.5 13.2 57 12.7
2009-11-20 12:28:21 51°14.214 2°53.467 58.5 13 58 12.2
2009-11-20 12:29:21 51°14.343 2°53.749 52.5 13.2 50 12.1
2009-11-20 12:30:21 51°14.476 2°54.027 51.9 13.3 53 12.3
2009-11-20 12:31:21 51°14.61 2°54.305 53.6 13.2 54 12.8
2009-11-20 12:32:21 51°14.739 2°54.59 52.2 13.2 55 12.4
2009-11-20 12:33:21 51°14.868 2°54.869 53.6 13.1 52 11.9
2009-11-20 12:34:21 51°14.999 2°55.151 51.9 13.4 53 11.5
2009-11-20 12:35:21 51°15.131 2°55.432 51.1 13.1 49 11.2
2009-11-20 12:36:21 51°15.267 2°55.703 49.3 13 47 10.7
2009-11-20 12:37:21 51°15.403 2°55.97 49.5 12.9 50 10.3
2009-11-20 12:38:21 51°15.535 2°56.236 50.2 12.7 52 10
2009-11-20 12:39:21 51°15.668 2°56.505 50.1 12.9 52 9.8
2009-11-20 12:40:21 51°15.802 2°56.777 49.5 13 51 9.9
2009-11-20 12:41:21 51°15.937 2°57.045 50.6 13 55 10.1
2009-11-20 12:42:21 51°16.071 2°57.312 49.3 12.9 56 10.4
2009-11-20 12:43:21 51°16.206 2°57.581 51.2 13 50 10.8
2009-11-20 12:44:21 51°16.342 2°57.851 49.4 13.1 48 11.1
2009-11-20 12:45:21 51°16.479 2°58.123 50.8 13.1 50 11.2
2009-11-20 12:46:21 51°16.615 2°58.396 49.8 13.1 51 11.4
2009-11-20 12:47:21 51°16.752 2°58.673 50.1 13.4 54 11.6
2009-11-20 12:48:37 51°16.929 2°59.02 48.8 13.3 50 11.8
2009-11-20 12:49:36 51°17.062 2°59.294 51.2 13.2 53 11.7
2009-11-20 12:50:37 51°17.203 2°59.575 49.3 13.4 45 12
2009-11-20 12:51:37 51°17.34 2°59.852 50.9 13.2 52 11.7
2009-11-20 12:52:37 51°17.478 3°0.134 51.1 13.6 52 11.8
2009-11-20 12:53:37 51°17.619 3°0.417 49.5 13.5 49 11.9
2009-11-20 12:54:37 51°17.759 3°0.699 50.5 13.7 53 11.6
2009-11-20 12:55:37 51°17.9 3°0.977 47.7 13.4 46 11.6
2009-11-20 12:56:36 51°18.034 3°1.249 49.7 13.1 55 11
2009-11-20 12:57:37 51°18.176 3°1.529 50.6 13.6 53 11.3
2009-11-20 12:58:37 51°18.315 3°1.804 49.6 13.5 56 11.6
2009-11-20 12:59:37 51°18.454 3°2.074 49 13 54 10.6
2009-11-20 13:00:37 51°18.589 3°2.347 50.8 13 53 10.4
2009-11-20 13:01:37 51°18.722 3°2.616 51.4 12.9 53 10.5
2009-11-20 13:02:37 51°18.858 3°2.883 48.6 13.1 56 10.5
2009-11-20 13:03:37 51°18.994 3°3.149 52.8 13.2 57 10.8
2009-11-20 13:04:37 51°19.129 3°3.423 50.5 13.2 56 10.8
2009-11-20 13:05:37 51°19.271 3°3.693 49.4 13.2 47 10.8
2009-11-20 13:06:37 51°19.409 3°3.969 50 13.3 54 10.9
2009-11-20 13:07:37 51°19.534 3°4.227 51.2 9.6 53 10.9
2009-11-20 13:08:37 51°19.601 3°4.393 64.8 6.2 62 10.9
2009-11-20 13:09:37 51°19.634 3°4.519 84 4.5 71 10.9
2009-11-20 13:10:37 51°19.651 3°4.649 102.8 5.8 86 10.9
2009-11-20 13:11:37 51°19.647 3°4.805 118.4 5.3 95 11
2009-11-20 13:12:37 51°19.638 3°4.922 129.6 4.2 96 11
2009-11-20 13:13:37 51°19.635 3°5.033 118.8 4.2 87 11
2009-11-20 13:14:37 51°19.643 3°5.146 108.5 4.4 85 10.6
2009-11-20 13:15:37 51°19.655 3°5.266 98.8 4.7 80 10.8
2009-11-20 13:16:37 51°19.676 3°5.393 84.9 4.9 75 10.8
2009-11-20 13:17:37 51°19.694 3°5.508 93.8 4.3 75 10.6
2009-11-20 13:18:37 51°19.711 3°5.615 91.1 4.1 73 10.6
2009-11-20 13:19:37 51°19.73 3°5.718 88.6 4 74 10.6
2009-11-20 13:20:37 51°19.75 3°5.818 84.7 4 71 10.6
2009-11-20 13:21:37 51°19.772 3°5.919 84.9 4 70 10.4
2009-11-20 13:22:37 51°19.796 3°6.02 83.9 4 69 10.7
2009-11-20 13:23:37 51°19.819 3°6.123 84.3 4.1 70 10.7
2009-11-20 13:24:37 51°19.845 3°6.227 79.9 4.2 68 10.7
2009-11-20 13:25:37 51°19.869 3°6.33 90.9 4 72 10.7
2009-11-20 13:26:37 51°19.889 3°6.437 93 4.3 72 10.9
2009-11-20 13:27:37 51°19.911 3°6.549 94 4.5 72 10.6
2009-11-20 13:28:37 51°19.93 3°6.665 96.4 4.5 74 10.3
2009-11-20 13:29:37 51°19.947 3°6.781 96.1 4.5 75 10.5
2009-11-20 13:30:37 51°19.968 3°6.899 95.3 4.6 76 10.5
2009-11-20 13:31:37 51°19.985 3°7.017 96.6 4.5 80 10.7
2009-11-20 13:32:37 51°20.001 3°7.132 93.3 4.5 76 10.7
2009-11-20 13:33:37 51°20.021 3°7.246 93.1 4.4 76 10.7
2009-11-20 13:34:36 51°20.041 3°7.358 86.1 4.6 70 10.5
2009-11-20 13:35:37 51°20.068 3°7.476 82.2 4.6 69 10.4
2009-11-20 13:36:36 51°20.094 3°7.587 80.2 4.6 67 10.4
2009-11-20 13:37:37 51°20.122 3°7.701 81.5 4.6 67 10.4
2009-11-20 13:38:37 51°20.146 3°7.812 84.2 4.3 74 10.5
2009-11-20 13:39:37 51°20.169 3°7.921 81.6 4.4 69 10.3
2009-11-20 13:40:37 51°20.196 3°8.03 83 4.4 68 10.4
2009-11-20 13:41:37 51°20.22 3°8.139 82.8 4.4 69 10.1
2009-11-20 13:42:37 51°20.248 3°8.249 82.5 4.5 67 10.2
2009-11-20 13:43:36 51°20.272 3°8.356 87 4.2 73 10.1
2009-11-20 13:44:37 51°20.296 3°8.466 83.1 4.4 68 10
2009-11-20 13:45:37 51°20.321 3°8.575 95.4 4.1 75 9.8
2009-11-20 13:46:37 51°20.327 3°8.671 114.8 3.6 83 10.2
2009-11-20 13:47:37 51°20.338 3°8.769 104.4 3.8 79 10.1
2009-11-20 13:48:37 51°20.349 3°8.864 112.4 3.5 81 9.8
2009-11-20 13:49:37 51°20.352 3°8.946 133.6 3 88 10.2
2009-11-20 13:50:36 51°20.361 3°9.014 131.6 2.6 69 9.9
2009-11-20 13:51:38 51°20.376 3°9.072 136 2.1 65 9.6
2009-11-20 13:52:37 51°20.393 3°9.119 145 2 56 9.6
2009-11-20 13:53:38 51°20.4 3°9.189 112.8 3.9 90 9.7
2009-11-20 13:54:37 51°20.447 3°9.29 24.3 5.3 25 9.8
2009-11-20 13:55:37 51°20.521 3°9.278 303.7 4.1 325 9.9
2009-11-20 13:56:37 51°20.56 3°9.159 267.1 5.9 281 10.1
2009-11-20 13:57:37 51°20.549 3°8.966 251 8.7 256 10.4
2009-11-20 13:58:37 51°20.498 3°8.741 238.9 9.3 243 9.8
2009-11-20 13:59:37 51°20.423 3°8.533 238 8.7 242 10
2009-11-20 14:00:37 51°20.359 3°8.319 241.9 8.9 245 9.8
2009-11-20 14:01:37 51°20.298 3°8.104 243.2 9.1 246 10.2
2009-11-20 14:02:37 51°20.239 3°7.875 245.7 9.5 249 10.3
2009-11-20 14:03:37 51°20.183 3°7.643 244.4 9.3 249 10.5
2009-11-20 14:04:37 51°20.124 3°7.414 244.4 9.3 248 10.2
2009-11-20 14:05:37 51°20.064 3°7.192 243.2 9.1 247 10.6
2009-11-20 14:06:37 51°20.02 3°6.977 237.7 8.2 235 10.7
2009-11-20 14:07:37 51°19.938 3°6.789 233.2 8.9 234 10.7
2009-11-20 14:08:37 51°19.85 3°6.601 233.5 8.4 236 10.3
2009-11-20 14:09:37 51°19.774 3°6.405 238.3 9 241 10.9
2009-11-20 14:10:37 51°19.699 3°6.199 237.4 8.9 240 10.9
2009-11-20 14:11:37 51°19.626 3°5.994 238.3 9 242 11.3
2009-11-20 14:12:37 51°19.552 3°5.789 238.7 9 239 11.2
2009-11-20 14:13:37 51°19.477 3°5.585 239.1 8.8 239 11
2009-11-20 14:14:37 51°19.407 3°5.376 239.6 9 241 11.4
2009-11-20 14:15:37 51°19.333 3°5.17 237.9 8.8 240 10.8
2009-11-20 14:16:37 51°19.258 3°4.973 237.3 8.7 238 11.5
2009-11-20 14:17:37 51°19.184 3°4.776 237.4 8.6 241 11.6
2009-11-20 14:18:37 51°19.112 3°4.569 239.8 9 241 11.4
2009-11-20 14:19:37 51°19.036 3°4.361 236.7 9 238 11.6
2009-11-20 14:20:37 51°18.956 3°4.162 236.5 9 236 12.2
2009-11-20 14:21:37 51°18.873 3°3.965 236.2 8.9 237 12
2009-11-20 14:22:37 51°18.794 3°3.77 236 8.8 237 11.9
2009-11-20 14:23:37 51°18.714 3°3.573 235.9 8.8 237 11.2
2009-11-20 14:24:37 51°18.633 3°3.374 235 9 238 11.4
2009-11-20 14:25:37 51°18.554 3°3.169 237.8 9.2 241 11.9
2009-11-20 14:26:37 51°18.48 3°2.958 239.4 9.1 243 11.6
2009-11-20 14:27:37 51°18.405 3°2.752 237.4 9 239 12
2009-11-20 14:28:37 51°18.33 3°2.544 238.7 8.9 240 11.9
2009-11-20 14:29:37 51°18.254 3°2.337 238.3 9.1 240 12.2
2009-11-20 14:30:37 51°18.175 3°2.129 237.1 9.2 239 11.9
2009-11-20 14:31:37 51°18.099 3°1.918 239.1 9.4 241 12.2
2009-11-20 14:32:37 51°18.02 3°1.702 238.8 9.3 239 12
2009-11-20 14:33:37 51°17.943 3°1.49 238.4 9.3 239 12.3
2009-11-20 14:34:37 51°17.866 3°1.279 238.4 9.3 240 12.8
2009-11-20 14:35:37 51°17.789 3°1.065 238.9 9.4 239 12.5
2009-11-20 14:36:37 51°17.712 3°0.848 239.5 9.4 241 12.2
2009-11-20 14:37:37 51°17.634 3°0.63 238.9 9.3 239 12.3
2009-11-20 14:38:37 51°17.553 3°0.42 237.4 9.4 239 12.4
2009-11-20 14:39:37 51°17.472 3°0.207 237.4 9.3 238 11.9
2009-11-20 14:40:37 51°17.392 2°59.992 237.8 9.4 239 12.4
2009-11-20 14:41:37 51°17.31 2°59.775 237.6 9.5 239 12.1
2009-11-20 14:42:37 51°17.231 2°59.554 239.9 9.5 242 12.3
2009-11-20 14:43:37 51°17.151 2°59.334 238.2 9.6 240 12.2
2009-11-20 14:44:37 51°17.07 2°59.115 237.7 9.6 240 12.5
2009-11-20 14:45:37 51°16.991 2°58.893 239.6 9.6 241 12.4
2009-11-20 14:46:37 51°16.913 2°58.67 238.5 9.5 240 12
2009-11-20 14:47:37 51°16.834 2°58.454 237.2 9.4 238 12
2009-11-20 14:48:37 51°16.753 2°58.236 238.2 9.5 239 12.5
2009-11-20 14:49:37 51°16.674 2°58.015 239.1 9.6 241 13
2009-11-20 14:50:37 51°16.594 2°57.795 237.4 9.7 239 12.6
2009-11-20 14:51:37 51°16.514 2°57.572 238.1 9.7 241 12.3
2009-11-20 14:52:49 51°16.418 2°57.305 238.3 9.6 239 12.5
2009-11-20 14:53:49 51°16.335 2°57.087 236.8 9.6 238 12.5
2009-11-20 14:54:49 51°16.255 2°56.863 239.1 9.8 241 12.6
2009-11-20 14:55:49 51°16.178 2°56.637 238.9 9.7 241 12.2
2009-11-20 14:56:49 51°16.099 2°56.412 238.6 9.7 242 12.2
2009-11-20 14:57:49 51°16.019 2°56.188 238.4 9.7 241 12.3
2009-11-20 14:58:49 51°15.94 2°55.965 238.4 9.5 241 12.1
2009-11-20 14:59:49 51°15.852 2°55.751 229.4 9.7 229 12.1
2009-11-20 15:00:49 51°15.741 2°55.563 224.2 9.8 225 12.1
2009-11-20 15:01:49 51°15.623 2°55.383 222.9 9.8 224 11.9
2009-11-20 15:02:49 51°15.504 2°55.208 222.9 9.6 224 11.5
2009-11-20 15:03:49 51°15.374 2°55.059 209 9.6 206 11.2
2009-11-20 15:04:49 51°15.22 2°54.979 197.4 9.8 195 11.1
2009-11-20 15:05:49 51°15.059 2°54.927 194.3 9.8 191 11.8
2009-11-20 15:06:49 51°14.899 2°54.878 196 9.7 189 12.1
2009-11-20 15:07:49 51°14.738 2°54.849 185.8 9.9 180 12.8
2009-11-20 15:08:49 51°14.575 2°54.885 172.1 10.2 165 12.9
2009-11-20 15:09:49 51°14.42 2°54.998 154.1 10.3 144 12.8
2009-11-20 15:10:49 51°14.294 2°55.188 133.8 9.8 134 13.5
2009-11-20 15:11:49 51°14.184 2°55.357 141.3 9 143 13.6
2009-11-20 15:12:49 51°14.06 2°55.461 154.9 7.8 157 13.2
2009-11-20 15:13:49 51°13.946 2°55.543 154.9 7.4 156 13.9
2009-11-20 15:14:53 51°13.831 2°55.627 153.2 6.3 155 13.9
2009-11-20 15:15:53 51°13.755 2°55.71 134.1 5.1 136 -999
2009-11-20 15:16:53 51°13.706 2°55.807 124.6 4.4 125 -999
2009-11-20 15:17:53 51°13.674 2°55.9 111.8 3.4 114 -999